createdAt,value
2019-02-15T00:01:12.077Z,6.30
2019-02-15T00:03:39.843Z,6.30
2019-02-15T00:06:07.717Z,6.30
2019-02-15T00:08:36.404Z,6.30
2019-02-15T00:11:04.266Z,6.30
2019-02-15T00:13:32.260Z,6.30
2019-02-15T00:16:00.186Z,6.20
2019-02-15T00:18:37.588Z,6.20
2019-02-15T00:21:15.631Z,6.20
2019-02-15T00:23:43.598Z,6.20
2019-02-15T00:26:11.439Z,6.10
2019-02-15T00:28:39.218Z,6.20
2019-02-15T00:31:08.168Z,6.20
2019-02-15T00:33:35.969Z,6.20
2019-02-15T00:36:04.023Z,6.20
2019-02-15T00:38:31.782Z,6.20
2019-02-15T00:40:59.719Z,6.10
2019-02-15T00:43:28.030Z,6.10
2019-02-15T00:46:17.802Z,6.10
2019-02-15T00:48:45.618Z,6.10
2019-02-15T00:51:32.011Z,6.10
2019-02-15T00:54:21.751Z,6.00
2019-02-15T00:57:13.409Z,6.10
2019-02-15T01:00:12.401Z,6.10
2019-02-15T01:03:13.972Z,6.10
2019-02-15T01:06:21.080Z,6.10
2019-02-15T01:09:26.380Z,6.10
2019-02-15T01:12:13.576Z,6.10
2019-02-15T01:14:41.506Z,6.10
2019-02-15T01:17:10.060Z,6.10
2019-02-15T01:19:37.880Z,6.10
2019-02-15T01:22:05.586Z,6.20
2019-02-15T01:24:33.663Z,6.20
2019-02-15T01:27:13.591Z,6.30
2019-02-15T01:29:59.291Z,6.30
2019-02-15T01:32:43.140Z,6.40
2019-02-15T01:35:33.427Z,6.40
2019-02-15T01:38:26.153Z,6.50
2019-02-15T01:41:25.342Z,6.40
2019-02-15T01:44:15.859Z,6.40
2019-02-15T01:46:57.566Z,6.30
2019-02-15T01:49:25.862Z,6.30
2019-02-15T01:51:55.088Z,6.20
2019-02-15T01:54:22.799Z,6.20
2019-02-15T01:56:50.785Z,6.20
2019-02-15T01:59:18.648Z,6.10
2019-02-15T02:01:46.431Z,6.10
2019-02-15T02:04:14.434Z,6.10
2019-02-15T02:06:42.422Z,6.10
2019-02-15T02:09:10.401Z,6.10
2019-02-15T02:11:38.456Z,6.10
2019-02-15T02:14:09.513Z,6.10
2019-02-15T02:16:37.413Z,6.10
2019-02-15T02:19:07.449Z,6.20
2019-02-15T02:21:35.093Z,6.20
2019-02-15T02:24:02.873Z,6.20
2019-02-15T02:26:30.795Z,6.20
2019-02-15T02:28:58.634Z,6.20
2019-02-15T02:31:26.518Z,6.20
2019-02-15T02:33:54.259Z,6.20
2019-02-15T02:36:43.765Z,6.20
2019-02-15T02:39:11.519Z,6.20
2019-02-15T02:41:39.249Z,6.20
2019-02-15T02:44:07.146Z,6.20
2019-02-15T02:46:35.257Z,6.20
2019-02-15T02:49:03.141Z,6.20
2019-02-15T02:51:33.337Z,6.20
2019-02-15T02:54:00.996Z,6.20
2019-02-15T02:56:29.285Z,6.30
2019-02-15T02:58:57.035Z,6.30
2019-02-15T03:01:25.775Z,6.40
2019-02-15T03:03:53.690Z,6.30
2019-02-15T03:06:21.816Z,6.30
2019-02-15T03:08:49.711Z,6.40
2019-02-15T03:11:17.674Z,6.30
2019-02-15T03:13:45.586Z,6.30
2019-02-15T03:16:13.665Z,6.00
2019-02-15T03:18:41.396Z,6.30
2019-02-15T03:21:09.242Z,6.20
2019-02-15T03:23:36.940Z,6.20
2019-02-15T03:26:04.800Z,6.20
2019-02-15T03:28:32.759Z,6.20
2019-02-15T03:31:00.641Z,6.30
2019-02-15T03:33:28.566Z,6.30
2019-02-15T03:36:00.963Z,6.30
2019-02-15T03:38:51.469Z,6.30
2019-02-15T03:41:26.381Z,6.30
2019-02-15T03:43:55.405Z,6.30
2019-02-15T03:46:23.540Z,6.40
2019-02-15T03:48:51.363Z,6.30
2019-02-15T03:51:19.291Z,6.30
2019-02-15T03:53:47.509Z,6.30
2019-02-15T03:56:15.536Z,6.30
2019-02-15T03:58:43.728Z,6.30
2019-02-15T04:01:11.478Z,6.30
2019-02-15T04:03:39.271Z,6.20
2019-02-15T04:06:07.079Z,6.20
2019-02-15T04:08:34.836Z,6.20
2019-02-15T04:11:02.735Z,6.00
2019-02-15T04:13:30.687Z,6.10
2019-02-15T04:15:58.557Z,6.20
2019-02-15T04:18:26.449Z,6.40
2019-02-15T04:20:54.297Z,6.30
2019-02-15T04:23:22.363Z,6.20
2019-02-15T04:25:50.311Z,6.20
2019-02-15T04:28:18.234Z,6.20
2019-02-15T04:30:46.117Z,6.30
2019-02-15T04:33:14.038Z,6.20
2019-02-15T04:35:41.909Z,6.20
2019-02-15T04:38:09.787Z,6.10
2019-02-15T04:40:39.418Z,6.10
2019-02-15T04:43:07.279Z,6.10
2019-02-15T04:45:35.119Z,6.10
2019-02-15T04:48:03.035Z,6.00
2019-02-15T04:50:30.907Z,6.00
2019-02-15T04:52:58.914Z,6.00
2019-02-15T04:55:26.699Z,6.00
2019-02-15T04:57:54.437Z,6.00
2019-02-15T05:00:22.547Z,5.90
2019-02-15T05:02:50.321Z,5.90
2019-02-15T05:05:18.248Z,5.90
2019-02-15T05:07:46.020Z,6.00
2019-02-15T05:10:14.094Z,5.90
2019-02-15T05:12:41.894Z,5.90
2019-02-15T05:15:12.163Z,5.90
2019-02-15T05:17:40.040Z,5.90
2019-02-15T05:20:09.473Z,5.90
2019-02-15T05:22:37.274Z,5.90
2019-02-15T05:25:05.281Z,5.90
2019-02-15T05:27:33.185Z,5.90
2019-02-15T05:30:00.923Z,5.90
2019-02-15T05:32:29.196Z,5.90
2019-02-15T05:34:57.185Z,5.90
2019-02-15T05:37:35.460Z,5.90
2019-02-15T05:40:15.738Z,6.00
2019-02-15T05:42:43.434Z,6.10
2019-02-15T05:45:13.655Z,6.10
2019-02-15T05:47:41.774Z,6.10
2019-02-15T05:50:11.823Z,6.30
2019-02-15T05:52:40.895Z,6.30
2019-02-15T05:55:12.481Z,6.40
2019-02-15T05:57:40.749Z,6.40
2019-02-15T06:00:11.553Z,6.40
2019-02-15T06:02:39.347Z,6.40
2019-02-15T06:05:07.793Z,6.40
2019-02-15T06:07:35.695Z,6.40
2019-02-15T06:10:03.832Z,6.40
2019-02-15T06:12:32.224Z,6.50
2019-02-15T06:15:00.009Z,6.50
2019-02-15T06:17:28.058Z,6.50
2019-02-15T06:19:56.118Z,6.50
2019-02-15T06:22:24.101Z,6.40
2019-02-15T06:24:53.494Z,6.40
2019-02-15T06:27:21.915Z,6.40
2019-02-15T06:29:49.737Z,6.30
2019-02-15T06:32:17.530Z,6.30
2019-02-15T06:34:45.358Z,6.30
2019-02-15T06:37:13.133Z,6.40
2019-02-15T06:39:40.892Z,6.40
2019-02-15T06:42:08.680Z,6.50
2019-02-15T06:44:36.436Z,6.50
2019-02-15T06:47:04.182Z,6.50
2019-02-15T06:49:31.862Z,6.60
2019-02-15T06:51:59.778Z,6.60
2019-02-15T06:54:27.389Z,6.70
2019-02-15T06:56:55.145Z,6.70
2019-02-15T06:59:47.905Z,6.70
2019-02-15T07:02:35.129Z,6.70
2019-02-15T07:05:34.512Z,6.70
2019-02-15T07:08:02.235Z,6.60
2019-02-15T07:10:29.946Z,6.70
2019-02-15T07:12:58.073Z,6.80
2019-02-15T07:15:33.395Z,6.80
2019-02-15T07:17:55.628Z,6.80
2019-02-15T07:23:00.689Z,6.80
2019-02-15T07:25:29.267Z,6.80
2019-02-15T07:27:58.327Z,6.80
2019-02-15T07:30:27.742Z,6.80
2019-02-15T07:32:57.618Z,6.90
2019-02-15T07:35:25.724Z,6.80
2019-02-15T07:37:54.153Z,6.80
2019-02-15T07:40:22.548Z,6.80
2019-02-15T07:42:50.622Z,6.90
2019-02-15T07:45:18.540Z,6.90
2019-02-15T07:47:46.828Z,6.90
2019-02-15T07:50:14.831Z,7.00
2019-02-15T07:52:43.348Z,7.00
2019-02-15T07:55:11.214Z,7.20
2019-02-15T07:57:39.404Z,7.30
2019-02-15T08:00:12.096Z,7.40
2019-02-15T08:02:40.761Z,7.50
2019-02-15T08:05:08.505Z,7.50
2019-02-15T08:07:36.597Z,7.60
2019-02-15T08:10:04.453Z,7.60
2019-02-15T08:12:32.396Z,7.70
2019-02-15T08:15:00.360Z,7.80
2019-02-15T08:17:28.353Z,7.90
2019-02-15T08:19:56.319Z,7.90
2019-02-15T08:22:24.006Z,7.90
2019-02-15T08:24:51.912Z,8.00
2019-02-15T08:27:20.566Z,8.10
2019-02-15T08:29:48.505Z,8.10
2019-02-15T08:32:16.289Z,8.10
2019-02-15T08:34:45.361Z,8.20
2019-02-15T08:37:13.902Z,8.20
2019-02-15T08:39:41.821Z,8.20
2019-02-15T08:42:09.967Z,8.20
2019-02-15T08:44:37.710Z,8.30
2019-02-15T08:47:05.718Z,8.40
2019-02-15T08:49:34.277Z,8.40
2019-02-15T08:52:02.186Z,8.50
2019-02-15T08:54:30.152Z,8.50
2019-02-15T08:56:58.221Z,8.40
2019-02-15T08:59:26.177Z,8.60
2019-02-15T09:02:25.381Z,8.70
2019-02-15T09:04:53.588Z,8.60
2019-02-15T09:07:21.440Z,8.70
2019-02-15T09:09:49.253Z,8.70
2019-02-15T09:12:17.592Z,8.80
2019-02-15T09:14:45.533Z,8.80
2019-02-15T09:17:13.844Z,8.80
2019-02-15T09:19:41.612Z,8.90
2019-02-15T09:22:09.494Z,8.90
2019-02-15T09:24:37.346Z,9.00
2019-02-15T09:27:20.330Z,9.00
2019-02-15T09:29:48.331Z,9.10
2019-02-15T09:32:16.056Z,9.20
2019-02-15T09:34:45.312Z,9.20
2019-02-15T09:37:13.286Z,9.10
2019-02-15T09:39:41.049Z,9.20
2019-02-15T09:42:09.024Z,9.20
2019-02-15T09:44:37.148Z,9.20
2019-02-15T09:47:05.433Z,9.30
2019-02-15T09:49:33.828Z,9.30
2019-02-15T09:52:01.401Z,9.20
2019-02-15T09:54:35.464Z,9.30
2019-02-15T09:57:03.933Z,9.30
2019-02-15T09:59:32.350Z,9.30
2019-02-15T10:02:00.071Z,9.40
2019-02-15T10:04:28.068Z,9.40
2019-02-15T10:07:02.098Z,9.40
2019-02-15T10:09:30.073Z,9.50
2019-02-15T10:11:58.014Z,9.40
2019-02-15T10:14:25.688Z,9.50
2019-02-15T10:16:54.177Z,9.70
2019-02-15T10:19:23.805Z,9.70
2019-02-15T10:21:51.537Z,9.80
2019-02-15T10:24:19.488Z,9.70
2019-02-15T10:26:51.182Z,9.80
2019-02-15T10:29:20.776Z,9.70
2019-02-15T10:31:48.534Z,9.70
2019-02-15T10:34:16.330Z,9.70
2019-02-15T10:36:44.216Z,9.80
2019-02-15T10:39:13.670Z,9.90
2019-02-15T10:41:41.997Z,9.80
2019-02-15T10:44:12.670Z,9.80
2019-02-15T10:46:40.448Z,9.80
2019-02-15T10:49:08.739Z,9.90
2019-02-15T10:51:36.806Z,9.90
2019-02-15T10:54:04.570Z,9.80
2019-02-15T10:56:32.418Z,9.90
2019-02-15T10:59:02.053Z,10.00
2019-02-15T11:01:29.900Z,10.00
2019-02-15T11:03:58.069Z,9.90
2019-02-15T11:06:26.050Z,9.80
2019-02-15T11:08:53.989Z,9.70
2019-02-15T11:11:23.257Z,9.80
2019-02-15T11:13:50.904Z,9.80
2019-02-15T11:16:18.601Z,9.80
2019-02-15T11:18:46.286Z,10.00
2019-02-15T11:21:13.975Z,10.10
2019-02-15T11:23:41.551Z,10.10
2019-02-15T11:26:09.581Z,10.20
2019-02-15T11:28:37.498Z,10.10
2019-02-15T11:31:05.222Z,10.20
2019-02-15T11:33:32.957Z,10.00
2019-02-15T11:36:00.686Z,9.90
2019-02-15T11:38:28.318Z,9.90
2019-02-15T11:40:56.088Z,9.80
2019-02-15T11:43:25.171Z,9.80
2019-02-15T11:45:53.098Z,9.80
2019-02-15T11:48:20.911Z,9.90
2019-02-15T11:50:48.765Z,10.00
2019-02-15T11:53:16.628Z,10.10
2019-02-15T11:55:44.390Z,10.20
2019-02-15T11:58:13.399Z,10.10
2019-02-15T12:00:41.136Z,10.10
2019-02-15T12:03:08.933Z,10.00
2019-02-15T12:05:36.755Z,9.90
2019-02-15T12:08:04.756Z,9.80
2019-02-15T12:10:32.589Z,9.80
2019-02-15T12:13:54.150Z,9.80
2019-02-15T12:21:19.064Z,9.80
2019-02-15T12:23:50.186Z,9.80
2019-02-15T12:26:35.280Z,9.90
2019-02-15T12:29:03.115Z,9.90
2019-02-15T12:31:30.739Z,9.90
2019-02-15T12:33:58.360Z,9.90
2019-02-15T12:36:26.155Z,9.80
2019-02-15T12:38:53.912Z,9.70
2019-02-15T12:41:21.548Z,9.60
2019-02-15T12:43:49.321Z,9.50
2019-02-15T12:46:17.020Z,9.50
2019-02-15T12:48:44.755Z,9.50
2019-02-15T12:51:12.572Z,9.60
2019-02-15T12:53:40.492Z,9.50
2019-02-15T12:56:08.299Z,9.40
2019-02-15T12:58:38.950Z,9.40
2019-02-15T13:01:17.958Z,9.40
2019-02-15T13:03:46.392Z,9.30
2019-02-15T13:06:15.376Z,9.20
2019-02-15T13:08:43.740Z,9.40
2019-02-15T13:11:16.192Z,9.30
2019-02-15T13:13:46.526Z,9.40
2019-02-15T13:16:31.085Z,9.40
2019-02-15T13:19:08.204Z,9.40
2019-02-15T13:21:39.469Z,9.30
2019-02-15T13:24:07.384Z,9.20
2019-02-15T13:26:35.293Z,9.20
2019-02-15T13:29:02.970Z,9.20
2019-02-15T13:31:30.752Z,9.20
2019-02-15T13:33:58.497Z,9.20
2019-02-15T13:36:26.346Z,9.20
2019-02-15T13:38:54.055Z,9.20
2019-02-15T13:41:21.793Z,9.20
2019-02-15T13:43:49.591Z,9.10
2019-02-15T13:46:17.308Z,9.00
2019-02-15T13:48:45.046Z,8.90
2019-02-15T13:51:12.610Z,8.80
2019-02-15T13:53:40.245Z,8.80
2019-02-15T13:56:07.916Z,8.80
2019-02-15T13:58:35.605Z,8.80
2019-02-15T14:01:03.258Z,8.80
2019-02-15T14:03:32.747Z,8.80
2019-02-15T14:06:00.437Z,8.80
2019-02-15T14:08:28.081Z,8.80
2019-02-15T14:10:55.870Z,8.70
2019-02-15T14:13:23.534Z,8.70
2019-02-15T14:15:51.157Z,8.70
2019-02-15T14:18:18.850Z,8.60
2019-02-15T14:20:46.496Z,8.60
2019-02-15T14:23:14.273Z,8.60
2019-02-15T14:25:41.920Z,8.50
2019-02-15T14:28:09.668Z,8.50
2019-02-15T14:30:37.290Z,8.50
2019-02-15T14:33:04.990Z,8.50
2019-02-15T14:35:32.645Z,8.50
2019-02-15T14:38:00.353Z,8.40
2019-02-15T14:40:28.122Z,8.30
2019-02-15T14:42:55.869Z,8.40
2019-02-15T14:45:23.497Z,8.40
2019-02-15T14:47:54.866Z,8.40
2019-02-15T14:50:20.684Z,8.40
2019-02-15T14:52:48.382Z,8.20
2019-02-15T14:55:16.152Z,8.30
2019-02-15T14:57:43.940Z,8.20
2019-02-15T15:00:11.775Z,8.10
2019-02-15T15:02:39.672Z,8.10
2019-02-15T15:05:07.739Z,8.00
2019-02-15T15:07:35.558Z,8.00
2019-02-15T15:10:03.850Z,7.90
2019-02-15T15:12:32.075Z,7.70
2019-02-15T15:14:59.806Z,7.60
2019-02-15T15:17:28.001Z,7.40
2019-02-15T15:19:55.638Z,7.00
2019-02-15T15:22:23.679Z,7.10
2019-02-15T15:24:54.230Z,7.00
2019-02-15T15:27:23.038Z,6.90
2019-02-15T15:29:51.307Z,6.80
2019-02-15T15:32:21.833Z,6.70
2019-02-15T15:34:51.136Z,6.70
2019-02-15T15:37:18.985Z,6.60
2019-02-15T15:39:47.184Z,6.50
2019-02-15T15:42:15.006Z,6.50
2019-02-15T15:44:42.894Z,6.40
2019-02-15T15:47:10.895Z,6.40
2019-02-15T15:49:38.813Z,6.40
2019-02-15T15:52:07.187Z,6.30
2019-02-15T15:54:35.094Z,6.30
2019-02-15T15:57:05.328Z,6.30
2019-02-15T15:59:33.624Z,6.20
2019-02-15T16:02:02.720Z,6.10
2019-02-15T16:04:30.980Z,6.10
2019-02-15T16:06:59.303Z,6.10
2019-02-15T16:09:36.027Z,6.10
2019-02-15T16:12:04.048Z,6.00
2019-02-15T16:14:31.940Z,6.00
2019-02-15T16:17:05.178Z,6.00
2019-02-15T16:19:40.533Z,6.10
2019-02-15T16:22:06.342Z,6.00
2019-02-15T16:27:10.774Z,6.00
2019-02-15T16:29:39.023Z,6.00
2019-02-15T16:32:19.333Z,6.00
2019-02-15T16:34:50.073Z,6.00
2019-02-15T16:37:18.422Z,5.90
2019-02-15T16:39:46.908Z,5.80
2019-02-15T16:42:17.870Z,5.80
2019-02-15T16:44:45.738Z,5.70
2019-02-15T16:47:15.646Z,5.70
2019-02-15T16:49:48.260Z,5.60
2019-02-15T16:52:21.366Z,5.60
2019-02-15T16:54:49.609Z,5.60
2019-02-15T16:57:21.837Z,5.60
2019-02-15T16:59:53.818Z,5.60
2019-02-15T17:02:24.086Z,5.60
2019-02-15T17:04:53.360Z,5.50
2019-02-15T17:07:21.593Z,5.50
2019-02-15T17:09:49.536Z,5.50
2019-02-15T17:12:18.172Z,5.50
2019-02-15T17:14:48.437Z,5.50
2019-02-15T17:17:16.733Z,5.40
2019-02-15T17:19:48.380Z,5.30
2019-02-15T17:22:16.995Z,5.40
2019-02-15T17:24:47.081Z,5.30
2019-02-15T17:27:15.268Z,5.30
2019-02-15T17:29:43.531Z,5.00
2019-02-15T17:32:12.137Z,5.10
2019-02-15T17:34:46.667Z,5.10
2019-02-15T17:37:15.956Z,5.00
2019-02-15T17:39:49.765Z,5.00
2019-02-15T17:42:17.914Z,4.90
2019-02-15T17:44:47.176Z,4.90
2019-02-15T17:47:15.070Z,4.90
2019-02-15T17:49:42.978Z,4.90
2019-02-15T17:52:11.118Z,5.00
2019-02-15T17:54:39.320Z,5.00
2019-02-15T17:57:07.502Z,4.90
2019-02-15T17:59:35.520Z,4.90
2019-02-15T18:02:04.009Z,4.90
2019-02-15T18:04:38.047Z,4.90
2019-02-15T18:07:06.164Z,4.90
2019-02-15T18:09:34.116Z,5.00
2019-02-15T18:12:05.276Z,5.00
2019-02-15T18:14:33.015Z,4.90
2019-02-15T18:17:01.465Z,5.00
2019-02-15T18:19:29.146Z,5.00
2019-02-15T18:21:57.621Z,5.00
2019-02-15T18:24:26.085Z,4.90
2019-02-15T18:26:53.846Z,5.00
2019-02-15T18:29:21.739Z,5.10
2019-02-15T18:31:49.627Z,5.00
2019-02-15T18:34:17.849Z,5.10
2019-02-15T18:36:47.712Z,5.00
2019-02-15T18:39:16.921Z,5.00
2019-02-15T18:41:45.624Z,5.00
2019-02-15T18:44:13.738Z,5.00
2019-02-15T18:46:41.420Z,5.00
2019-02-15T18:49:18.974Z,5.00
2019-02-15T18:51:40.679Z,5.00
2019-02-15T18:54:08.323Z,5.00
2019-02-15T18:56:36.235Z,5.10
2019-02-15T18:59:04.064Z,5.00
2019-02-15T19:01:32.924Z,5.10
2019-02-15T19:04:01.534Z,5.00
2019-02-15T19:06:41.261Z,5.00
2019-02-15T19:09:09.157Z,5.10
2019-02-15T19:11:37.002Z,5.00
2019-02-15T19:14:04.728Z,5.00
2019-02-15T19:16:32.725Z,4.90
2019-02-15T19:19:00.612Z,5.00
2019-02-15T19:21:28.767Z,4.90
2019-02-15T19:23:57.418Z,4.90
2019-02-15T19:26:30.260Z,5.00
2019-02-15T19:28:57.920Z,5.20
2019-02-15T19:31:25.956Z,5.00
2019-02-15T19:33:54.238Z,5.00
2019-02-15T19:36:22.185Z,4.90
2019-02-15T19:38:50.180Z,4.90
2019-02-15T19:41:18.260Z,4.90
2019-02-15T19:43:46.128Z,4.90
2019-02-15T19:46:13.971Z,4.90
2019-02-15T19:48:44.071Z,4.90
2019-02-15T19:51:16.235Z,4.90
2019-02-15T19:53:46.443Z,5.20
2019-02-15T19:56:14.241Z,4.90
2019-02-15T19:58:43.804Z,4.90
2019-02-15T20:01:14.704Z,4.90
2019-02-15T20:03:44.262Z,4.90
2019-02-15T20:06:12.268Z,4.90
2019-02-15T20:08:40.081Z,4.90
2019-02-15T20:11:07.955Z,4.80
2019-02-15T20:13:41.676Z,4.80
2019-02-15T20:16:39.532Z,4.80
2019-02-15T20:19:08.084Z,4.80
2019-02-15T20:21:43.720Z,4.80
2019-02-15T20:24:13.172Z,4.80
2019-02-15T20:26:41.566Z,4.80
2019-02-15T20:29:09.512Z,4.80
2019-02-15T20:31:37.385Z,4.80
2019-02-15T20:34:05.174Z,4.80
2019-02-15T20:36:33.513Z,4.80
2019-02-15T20:39:02.555Z,4.70
2019-02-15T20:41:33.647Z,4.70
2019-02-15T20:44:03.689Z,4.70
2019-02-15T20:46:31.534Z,4.70
2019-02-15T20:49:04.763Z,4.70
2019-02-15T20:51:30.567Z,4.70
2019-02-15T20:53:58.306Z,4.70
2019-02-15T20:56:26.232Z,4.70
2019-02-15T20:58:54.290Z,4.70
2019-02-15T21:01:23.181Z,4.70
2019-02-15T21:03:51.020Z,4.70
2019-02-15T21:06:19.155Z,4.70
2019-02-15T21:08:47.109Z,4.70
2019-02-15T21:11:17.413Z,4.70
2019-02-15T21:13:45.185Z,4.70
2019-02-15T21:16:13.072Z,4.70
2019-02-15T21:18:41.198Z,4.70
2019-02-15T21:21:10.159Z,4.80
2019-02-15T21:23:38.049Z,4.70
2019-02-15T21:26:06.328Z,4.70
2019-02-15T21:28:34.616Z,4.70
2019-02-15T21:31:03.940Z,4.70
2019-02-15T21:33:31.953Z,4.70
2019-02-15T21:36:01.218Z,4.70
2019-02-15T21:38:29.020Z,4.60
2019-02-15T21:40:56.937Z,4.60
2019-02-15T21:43:24.793Z,4.60
2019-02-15T21:45:52.553Z,4.60
2019-02-15T21:48:20.693Z,4.60
2019-02-15T21:50:49.735Z,4.60
2019-02-15T21:53:17.717Z,4.60
2019-02-15T21:55:47.784Z,4.60
2019-02-15T21:58:15.669Z,4.70
2019-02-15T22:00:43.922Z,4.70
2019-02-15T22:03:11.845Z,4.70
2019-02-15T22:05:39.628Z,4.70
2019-02-15T22:08:07.451Z,4.60
2019-02-15T22:10:35.298Z,4.60
2019-02-15T22:13:05.002Z,4.70
2019-02-15T22:15:33.279Z,4.70
2019-02-15T22:18:01.046Z,4.60
2019-02-15T22:20:30.264Z,4.60
2019-02-15T22:22:58.304Z,4.60
2019-02-15T22:25:26.897Z,4.70
2019-02-15T22:27:54.599Z,4.70
2019-02-15T22:30:23.399Z,4.70
2019-02-15T22:32:51.584Z,4.60
2019-02-15T22:35:19.407Z,4.70
2019-02-15T22:37:47.341Z,4.60
2019-02-15T22:40:26.036Z,4.60
2019-02-15T22:42:53.826Z,4.60
2019-02-15T22:45:23.664Z,4.70
2019-02-15T22:47:51.509Z,4.60
2019-02-15T22:50:22.198Z,4.60
2019-02-15T22:52:50.329Z,4.50
2019-02-15T22:55:18.101Z,4.70
2019-02-15T22:57:46.057Z,4.50
2019-02-15T23:00:28.305Z,4.50
2019-02-15T23:02:56.377Z,4.50
2019-02-15T23:05:24.261Z,4.60
2019-02-15T23:07:52.175Z,4.60
2019-02-15T23:10:29.155Z,4.60
2019-02-15T23:12:56.905Z,4.50
2019-02-15T23:15:24.723Z,4.50
2019-02-15T23:17:52.548Z,4.50
2019-02-15T23:20:23.579Z,4.50
2019-02-15T23:22:53.566Z,4.50
2019-02-15T23:25:21.469Z,4.50
2019-02-15T23:27:49.339Z,4.40
2019-02-15T23:30:21.865Z,4.40
2019-02-15T23:32:50.694Z,4.40
2019-02-15T23:35:18.626Z,4.40
2019-02-15T23:37:46.477Z,4.40
2019-02-15T23:40:15.349Z,4.40
2019-02-15T23:42:43.232Z,4.40
2019-02-15T23:45:11.148Z,4.40
2019-02-15T23:47:39.030Z,4.30
2019-02-15T23:50:06.955Z,4.30
2019-02-15T23:52:35.664Z,4.30
2019-02-15T23:55:04.205Z,4.30
2019-02-15T23:57:32.682Z,4.30
